Página principal
METAR-TAF:

METAR-TAF

Aeroportos :

Aeroporto Internacional de Mitiga

Trípoli, Líbia

latitude: 32-54N, longitude: 13-17E, altura: 11 m

Observação actual do tempo

O boletim foi feito há 1 hora e 0 minutos, às 08:50 UTC
Vento 7 kt de nordeste, variando entre norte e este
Temperatura 25°C
Humidade 54%
Pressão 1020 hPa
Visibilidade: 8000 m

METAR: HLLM 270850Z 05007KT 010V080 8000 NSC 25/15 Q1020

Hora: 11:50 (09:50 UTC)

Previsão

O boletim foi feito há 10 horas e 50 minutos, às 23:00 UTC
Previsão válida de 27 às 00 UTC a 27 às 24 UTC
Vento 10 kt de este com rajadas de 20 kt
Visibilidade: 8000 m
Poucas nuvensa uma altura de 2500 ft
Nuvens dispersasa uma altura de 8000 ft

TAF: HLLM 262300Z 2700/2724 09010KT 8000 NSC BECMG2710/2712 06010G20KT 8000 FEW025 SCT080 BECMG2722/2724 09010KT

Observações e previsões do tempo de mais de 4000 aeroportos (mensagens METAR e TAF).

As estações disponíveis são os pontos amarelos e vermelhos sobre o mapa.

Mova o rato sobre o mapa para ver o nome da estação.

Depois clique no ponto para visualizar as observações e previsões meteorológicas.

Para alterar o mapa : clique nos botões verdes com uma cruz preta para aumentar o zoom; no botão verde com uma pitada de zoom; ou nas setas verdes para mapas adjacentes.


METAR-TAF: